Time;durP1;ratioP1;P1;durP2;ratioP2;P2;SDS_P1;SDS_P2;PMS_P1;PMS_P2;Temp;Humidity;BMP_temperature;BMP_pressure;BME280_temperature;BME280_humidity;BME280_pressure;Samples;Min_cycle;Max_cycle;Signal;HPM_P1;HPM_P2
2022/05/11 02:09:47;;;;;;;5.90;1.80;;;;;;;-145.18;100.00;47265.97;4952153;29;20042;-73
2022/05/11 02:12:12;;;;;;;6.67;2.03;;;;;;;-145.18;100.00;47289.41;4952625;29;20036;-72
2022/05/11 02:14:39;;;;;;;4.97;2.20;;;;;;;-145.18;100.00;47267.94;4953143;29;20560;-73
2022/05/11 02:17:04;;;;;;;6.33;2.07;;;;;;;-145.18;100.00;47254.25;4952200;29;20478;-72
2022/05/11 02:19:30;;;;;;;5.83;1.90;;;;;;;-145.18;100.00;47267.94;4952946;29;20128;-72
2022/05/11 02:21:55;;;;;;;9.80;2.10;;;;;;;-145.18;100.00;47271.84;4952419;29;20039;-72
2022/05/11 02:24:21;;;;;;;3.47;1.50;;;;;;;-145.18;100.00;47242.53;4952488;29;20044;-72
2022/05/11 02:26:46;;;;;;;9.13;1.90;;;;;;;-145.18;100.00;47238.63;4952167;29;20035;-72
2022/05/11 02:29:12;;;;;;;5.20;1.77;;;;;;;-145.18;100.00;47234.72;4952812;29;20103;-72
2022/05/11 02:31:38;;;;;;;3.47;1.40;;;;;;;-145.18;100.00;47236.66;4953067;29;20126;-73
2022/05/11 02:34:06;;;;;;;3.90;1.10;;;;;;;-145.18;100.00;47217.13;4952295;29;20555;-73
2022/05/11 02:36:33;;;;;;;5.93;1.50;;;;;;;-145.18;100.00;47248.41;4952476;29;20067;-72
2022/05/11 02:38:58;;;;;;;4.73;1.70;;;;;;;-145.18;100.00;47219.09;4952144;29;20035;-72
2022/05/11 02:41:24;;;;;;;4.67;1.80;;;;;;;-145.18;100.00;47242.53;4952542;29;20113;-72
2022/05/11 02:43:49;;;;;;;8.20;1.80;;;;;;;-145.18;100.00;47238.63;4951662;28;20527;-72
2022/05/11 02:46:14;;;;;;;8.90;1.80;;;;;;;-145.18;100.00;47252.31;4952454;29;20400;-73
2022/05/11 02:48:40;;;;;;;4.73;1.93;;;;;;;-145.18;100.00;47238.63;4952002;29;20066;-72
2022/05/11 02:51:05;;;;;;;8.23;1.77;;;;;;;-145.18;100.00;47244.50;4951915;29;20070;-72
2022/05/11 02:53:32;;;;;;;5.60;2.33;;;;;;;-145.18;100.00;47265.97;4952019;29;20476;-72
2022/05/11 02:55:57;;;;;;;4.20;1.73;;;;;;;-145.18;100.00;47273.78;4952000;29;20547;-73
2022/05/11 02:58:26;;;;;;;4.97;1.90;;;;;;;-145.18;100.00;47267.94;4951878;29;20039;-73
2022/05/11 03:00:53;;;;;;;5.30;1.93;;;;;;;-145.18;100.00;47277.69;4952042;29;20039;-73
2022/05/11 03:03:20;;;;;;;10.90;2.07;;;;;;;-145.18;100.00;47316.78;4970423;28;20055;-73
2022/05/11 03:05:45;;;;;;;7.30;2.63;;;;;;;-145.18;100.00;47324.59;4971639;28;20062;-73
2022/05/11 03:08:11;;;;;;;9.97;2.60;;;;;;;-145.18;100.00;47326.53;4970650;28;20058;-73
2022/05/11 03:10:39;;;;;;;8.30;2.10;;;;;;;-145.18;100.00;47322.63;4971721;28;20089;-73
2022/05/11 03:13:06;;;;;;;5.87;1.93;;;;;;;-145.18;100.00;47295.28;4970886;28;20065;-73
2022/05/11 03:15:32;;;;;;;9.43;2.13;;;;;;;-145.18;100.00;47285.50;4971693;28;20035;-73
2022/05/11 03:17:58;;;;;;;7.53;1.70;;;;;;;-145.18;100.00;47281.59;4970828;28;20039;-73
2022/05/11 03:20:25;;;;;;;4.80;1.90;;;;;;;-145.18;100.00;47265.97;4971485;28;20805;-73
2022/05/11 03:22:51;;;;;;;4.83;2.10;;;;;;;-145.18;100.00;47285.50;4970624;28;20035;-73
2022/05/11 03:25:17;;;;;;;5.97;1.80;;;;;;;-145.18;100.00;47262.06;4971669;28;20038;-73
2022/05/11 03:27:43;;;;;;;4.57;1.80;;;;;;;-145.18;100.00;47254.25;4970802;28;20034;-73
2022/05/11 03:30:09;;;;;;;4.00;1.30;;;;;;;-145.18;100.00;47264.03;4971053;28;20031;-73
2022/05/11 03:35:19;;;;;;;6.77;1.90;;;;;;;-145.18;100.00;47244.50;4971446;28;20519;-73
2022/05/11 03:37:45;;;;;;;4.37;1.47;;;;;;;-145.18;100.00;47238.63;4970863;28;20058;-73
2022/05/11 03:40:12;;;;;;;8.40;2.23;;;;;;;-145.18;100.00;47244.50;4970704;28;20041;-72
2022/05/11 03:42:39;;;;;;;4.07;1.27;;;;;;;-145.18;100.00;47252.31;4970708;28;20035;-72
2022/05/11 03:45:10;;;;;;;3.83;1.40;;;;;;;-145.18;100.00;47244.50;4970918;28;20042;-72
2022/05/11 03:47:36;;;;;;;5.70;1.13;;;;;;;-145.18;100.00;47250.34;4970861;28;20027;-72
2022/05/11 03:50:02;;;;;;;5.47;1.50;;;;;;;-145.18;100.00;47240.56;4963967;28;20034;-73
2022/05/11 03:52:27;;;;;;;8.30;1.80;;;;;;;-145.18;100.00;47234.72;4956862;28;20042;-73
2022/05/11 03:54:53;;;;;;;3.80;1.20;;;;;;;-145.18;100.00;47248.41;4945532;28;20037;-73
2022/05/11 03:57:18;;;;;;;3.77;1.20;;;;;;;-145.18;100.00;47228.84;4973383;28;20034;-73
2022/05/11 03:59:44;;;;;;;6.50;1.90;;;;;;;-145.18;100.00;47236.66;4970864;28;20142;-72
2022/05/11 04:02:09;;;;;;;2.47;1.53;;;;;;;-145.18;100.00;47246.44;4954833;28;20043;-72
2022/05/11 04:04:34;;;;;;;6.77;1.60;;;;;;;-145.18;100.00;47234.72;4954287;28;20122;-73
2022/05/11 04:07:00;;;;;;;9.17;1.20;;;;;;;-145.18;100.00;47226.91;4954018;28;20133;-73
2022/05/11 04:09:25;;;;;;;4.70;1.30;;;;;;;-145.18;100.00;47226.91;4959125;28;20035;-72
2022/05/11 04:11:50;;;;;;;4.20;1.30;;;;;;;-145.18;100.00;47242.53;4972359;28;20018;-72
2022/05/11 04:14:16;;;;;;;6.93;1.10;;;;;;;-145.18;100.00;47219.09;4974097;28;20039;-72
2022/05/11 04:16:41;;;;;;;4.53;1.20;;;;;;;-145.18;100.00;47248.41;4974374;28;20034;-72
2022/05/11 04:19:06;;;;;;;5.60;1.40;;;;;;;-145.18;100.00;47223.00;4960765;28;20078;-72
2022/05/11 04:21:32;;;;;;;5.43;1.20;;;;;;;-145.18;100.00;47230.81;4955090;29;20550;-72
2022/05/11 04:23:57;;;;;;;8.77;1.57;;;;;;;-145.18;100.00;47240.56;4954276;29;20083;-72
2022/05/11 04:26:23;;;;;;;5.63;1.20;;;;;;;-145.18;100.00;47246.44;4955018;29;20031;-72
2022/05/11 04:28:49;;;;;;;5.70;1.20;;;;;;;-145.18;100.00;47258.16;4953302;29;20079;-73
2022/05/11 04:31:14;;;;;;;3.00;0.83;;;;;;;-145.18;100.00;47236.66;4955154;29;20539;-72
2022/05/11 04:33:40;;;;;;;5.17;1.20;;;;;;;-145.18;100.00;47234.72;4954854;29;20126;-72
2022/05/11 04:36:06;;;;;;;4.43;1.00;;;;;;;-145.18;100.00;47234.72;4954619;28;20030;-72
2022/05/11 04:38:32;;;;;;;8.80;1.33;;;;;;;-145.18;100.00;47238.63;4954990;28;20041;-72
2022/05/11 04:40:57;;;;;;;6.97;1.30;;;;;;;-145.18;100.00;47236.66;4973138;28;20045;-72
2022/05/11 04:43:23;;;;;;;4.80;1.00;;;;;;;-145.18;100.00;47236.66;4972930;28;20039;-72
2022/05/11 04:45:48;;;;;;;6.40;1.23;;;;;;;-145.18;100.00;47223.00;4973237;28;20074;-72
2022/05/11 04:48:16;;;;;;;4.47;1.17;;;;;;;-145.18;100.00;47238.63;4973379;28;20039;-72
2022/05/11 04:50:43;;;;;;;4.93;1.20;;;;;;;-145.18;100.00;47230.81;4973378;28;20054;-72
2022/05/11 04:53:11;;;;;;;5.03;0.97;;;;;;;-145.18;100.00;47226.91;4973302;28;20494;-72
2022/05/11 04:55:36;;;;;;;4.30;0.90;;;;;;;-145.18;100.00;47242.53;4973863;28;20041;-72
2022/05/11 04:58:04;;;;;;;4.63;1.07;;;;;;;-145.18;100.00;47221.03;4972903;28;20538;-72
2022/05/11 05:00:30;;;;;;;2.63;1.00;;;;;;;-145.18;100.00;47238.63;4973737;28;20402;-72
2022/05/11 05:02:55;;;;;;;6.80;0.83;;;;;;;-145.18;100.00;47226.91;4969458;28;20055;-72
2022/05/11 05:05:21;;;;;;;8.30;1.47;;;;;;;-145.18;100.00;47228.84;4968203;28;20045;-73
2022/05/11 05:07:46;;;;;;;5.97;1.07;;;;;;;-145.18;100.00;47230.81;4972987;28;20042;-73
2022/05/11 05:10:14;;;;;;;3.70;0.67;;;;;;;-145.18;100.00;47240.56;4973620;28;20085;-73
2022/05/11 05:12:43;;;;;;;6.37;1.20;;;;;;;-145.18;100.00;47223.00;4955637;28;20645;-73
2022/05/11 05:15:14;;;;;;;5.80;0.90;;;;;;;-145.18;100.00;47209.31;4973211;28;20058;-73
2022/05/11 05:17:39;;;;;;;4.90;1.00;;;;;;;-145.18;100.00;47219.09;4973058;28;20030;-73
2022/05/11 05:20:08;;;;;;;3.33;0.90;;;;;;;-145.18;100.00;47211.28;4973150;28;20035;-73
2022/05/11 05:22:35;;;;;;;8.57;1.17;;;;;;;-145.18;100.00;47228.84;4973242;28;20076;-74
2022/05/11 05:25:00;;;;;;;3.57;0.80;;;;;;;-145.18;100.00;47223.00;4972852;28;20031;-73
2022/05/11 05:27:25;;;;;;;13.07;1.47;;;;;;;-145.18;100.00;47205.41;4972909;28;20030;-73
2022/05/11 05:32:40;;;;;;;5.80;1.97;;;;;;;-145.18;100.00;47209.31;4973109;28;20053;-73
2022/05/11 05:35:11;;;;;;;4.43;1.00;;;;;;;-145.18;100.00;47191.75;4972858;28;20035;-74
2022/05/11 05:37:38;;;;;;;5.53;1.10;;;;;;;-145.18;100.00;47203.47;4972920;28;20519;-73
2022/05/11 05:40:05;;;;;;;5.33;1.80;;;;;;;-145.18;100.00;47201.50;4972976;28;20031;-73
2022/05/11 05:42:30;;;;;;;5.43;1.00;;;;;;;-145.18;100.00;47211.28;4972835;28;20035;-73
2022/05/11 05:44:56;;;;;;;6.13;1.20;;;;;;;-145.18;100.00;47199.56;4972680;28;20042;-73
2022/05/11 05:47:21;;;;;;;4.00;1.07;;;;;;;-145.18;100.00;47201.50;4958654;28;20046;-74
2022/05/11 05:49:47;;;;;;;11.67;1.50;;;;;;;-145.18;100.00;47211.28;4952813;28;20197;-73
2022/05/11 05:52:24;;;;;;;6.03;1.20;;;;;;;-145.18;100.00;47197.59;4953030;28;20359;-73
2022/05/11 05:54:51;;;;;;;7.60;1.83;;;;;;;-145.18;100.00;47201.50;4971586;28;20033;-74
2022/05/11 05:57:18;;;;;;;6.77;1.00;;;;;;;-145.18;100.00;47219.09;4971309;28;20133;-73
2022/05/11 05:59:45;;;;;;;11.03;1.90;;;;;;;-145.18;100.00;47199.56;4959481;28;20031;-73
2022/05/11 06:02:14;;;;;;;8.17;1.27;;;;;;;-145.18;100.00;47199.56;4957261;28;20046;-72
2022/05/11 06:04:48;;;;;;;4.10;0.83;;;;;;;-145.18;100.00;47221.03;4958843;28;20105;-73
2022/05/11 06:07:15;;;;;;;4.00;1.00;;;;;;;-145.18;100.00;47207.38;4972159;28;20728;-73
2022/05/11 06:09:41;;;;;;;4.53;1.17;;;;;;;-145.18;100.00;47223.00;4968668;28;20289;-73
2022/05/11 06:12:09;;;;;;;7.80;1.23;;;;;;;-145.18;100.00;47219.09;4972026;28;20065;-73
2022/05/11 06:14:35;;;;;;;8.83;1.70;;;;;;;-145.18;100.00;47197.59;4970765;28;20129;-73
2022/05/11 06:17:01;;;;;;;3.87;1.00;;;;;;;-145.18;100.00;47195.66;4970154;28;20563;-73
2022/05/11 06:19:28;;;;;;;3.90;1.20;;;;;;;-145.18;100.00;47199.56;4971180;28;20043;-73
2022/05/11 06:21:53;;;;;;;8.77;1.17;;;;;;;-145.18;100.00;47183.94;4972316;28;20100;-73
2022/05/11 06:24:19;;;;;;;4.87;1.03;;;;;;;-145.18;100.00;47185.88;4971693;28;20471;-73
2022/05/11 06:26:44;;;;;;;5.27;0.97;;;;;;;-145.18;100.00;47191.75;4972046;28;20476;-73
2022/05/11 06:29:10;;;;;;;6.23;1.10;;;;;;;-145.18;100.00;47180.03;4971227;28;20150;-74
2022/05/11 06:31:36;;;;;;;7.80;1.00;;;;;;;-145.18;100.00;47176.09;4972154;28;20042;-74
2022/05/11 06:34:01;;;;;;;6.63;1.40;;;;;;;-145.18;100.00;47183.94;4971109;28;20027;-73
2022/05/11 06:36:26;;;;;;;5.37;1.07;;;;;;;-145.18;100.00;47185.88;4971974;28;20070;-73
2022/05/11 06:38:53;;;;;;;8.60;1.20;;;;;;;-145.18;100.00;47201.50;4971453;28;20035;-73
2022/05/11 06:41:21;;;;;;;8.03;1.23;;;;;;;-145.18;100.00;47174.16;4938259;28;20041;-74
2022/05/11 06:43:47;;;;;;;8.93;1.40;;;;;;;-145.18;100.00;47187.84;4971565;28;20030;-74
2022/05/11 06:46:13;;;;;;;5.70;1.30;;;;;;;-145.18;100.00;47195.66;4958162;28;20572;-73
2022/05/11 06:48:38;;;;;;;3.60;1.10;;;;;;;-145.18;100.00;47170.25;4963225;28;20599;-74
2022/05/11 06:51:04;;;;;;;5.87;1.03;;;;;;;-145.18;100.00;47189.78;4930479;29;20097;-73
2022/05/11 06:59:16;;;;;;;5.83;1.00;;;;;;;-145.18;100.00;47189.78;4951902;29;20036;-73
2022/05/11 07:01:42;;;;;;;5.33;0.90;;;;;;;-145.18;100.00;47193.69;4952674;29;20141;-73
2022/05/11 07:04:08;;;;;;;4.70;0.80;;;;;;;-145.18;100.00;47183.94;4934049;29;20571;-73
2022/05/11 07:06:33;;;;;;;9.57;1.53;;;;;;;-145.18;100.00;47197.59;4952330;29;20065;-73
2022/05/11 07:08:58;;;;;;;6.73;1.30;;;;;;;-145.18;100.00;47207.38;4951606;29;20113;-73
2022/05/11 07:14:08;;;;;;;10.67;1.43;;;;;;;-145.18;100.00;47191.75;4951030;29;20097;-74
2022/05/11 07:16:34;;;;;;;10.80;1.40;;;;;;;-145.18;100.00;47180.03;4952227;29;20046;-73
2022/05/11 07:19:00;;;;;;;3.80;1.17;;;;;;;-145.18;100.00;47170.25;4951602;29;20035;-75
2022/05/11 07:21:25;;;;;;;8.57;1.20;;;;;;;-145.18;100.00;47174.16;4951976;29;20135;-75
2022/05/11 07:23:51;;;;;;;6.53;1.13;;;;;;;-145.18;100.00;47181.97;4951485;29;20035;-74
2022/05/11 07:26:16;;;;;;;8.33;1.03;;;;;;;-145.18;100.00;47168.28;4934669;29;20035;-74
2022/05/11 07:28:42;;;;;;;9.27;1.00;;;;;;;-145.18;100.00;47172.19;4951531;29;20035;-73
2022/05/11 07:31:07;;;;;;;5.83;1.00;;;;;;;-145.18;100.00;47172.19;4951509;29;20047;-75
2022/05/11 07:33:33;;;;;;;14.23;1.03;;;;;;;-145.18;100.00;47178.06;4951400;29;20114;-76
2022/05/11 07:35:59;;;;;;;5.97;1.03;;;;;;;-145.18;100.00;47195.66;4951622;29;20440;-73
2022/05/11 07:38:24;;;;;;;8.90;1.10;;;;;;;-145.18;100.00;47181.97;4934168;29;20134;-75
2022/05/11 07:40:50;;;;;;;5.63;1.00;;;;;;;-145.18;100.00;47168.28;4951848;29;20039;-74
2022/05/11 07:43:15;;;;;;;4.50;0.70;;;;;;;-145.18;100.00;47178.06;4951434;29;20059;-73
2022/05/11 07:45:42;;;;;;;4.03;0.70;;;;;;;-145.18;100.00;47154.63;4951566;29;20043;-73
2022/05/11 07:48:08;;;;;;;3.13;0.90;;;;;;;-145.18;100.00;47172.19;4951224;29;20492;-74
2022/05/11 07:50:34;;;;;;;5.73;0.90;;;;;;;-145.18;100.00;47148.75;4951951;29;20063;-74
2022/05/11 07:52:59;;;;;;;5.03;0.87;;;;;;;-145.18;100.00;47152.66;4951259;29;20039;-74
2022/05/11 07:55:26;;;;;;;7.57;0.83;;;;;;;-145.18;100.00;47154.63;4951239;29;20040;-74
2022/05/11 08:00:37;;;;;;;4.80;0.93;;;;;;;-145.18;100.00;47154.63;4951840;29;20046;-74
2022/05/11 08:03:03;;;;;;;6.03;0.80;;;;;;;-145.18;100.00;47154.63;4950623;29;20803;-73
2022/05/11 08:05:30;;;;;;;6.60;0.90;;;;;;;-145.18;100.00;47139.00;4951668;29;20119;-74
2022/05/11 08:07:57;;;;;;;5.10;0.97;;;;;;;-145.18;100.00;47150.72;4951011;29;20035;-74
2022/05/11 08:10:27;;;;;;;3.60;0.90;;;;;;;-145.18;100.00;47142.91;4962983;28;20491;-74
2022/05/11 08:12:53;;;;;;;8.97;1.13;;;;;;;-145.18;100.00;47121.41;4970743;28;20101;-74
2022/05/11 08:15:21;;;;;;;4.73;0.80;;;;;;;-145.18;100.00;47144.84;4970727;28;20484;-74
2022/05/11 08:17:47;;;;;;;9.97;1.17;;;;;;;-145.18;100.00;47129.22;4970664;28;20034;-75
2022/05/11 08:20:19;;;;;;;5.77;0.90;;;;;;;-145.18;100.00;47117.50;4969119;28;20045;-76
2022/05/11 08:22:45;;;;;;;3.63;1.30;;;;;;;-145.18;100.00;47117.50;4970139;28;20039;-76
2022/05/11 08:25:13;;;;;;;10.97;1.10;;;;;;;-145.18;100.00;47115.56;4969844;28;20480;-75
2022/05/11 08:27:40;;;;;;;5.50;0.80;;;;;;;-145.18;100.00;47101.88;4967440;28;20381;-75
2022/05/11 08:35:37;;;;;;;9.50;0.80;;;;;;;-145.18;100.00;47127.28;4970966;28;20038;-76
2022/05/11 08:38:04;;;;;;;5.97;1.00;;;;;;;-145.18;100.00;47131.19;4970014;28;20068;-76
2022/05/11 08:40:35;;;;;;;9.77;0.97;;;;;;;-145.18;100.00;47121.41;4970471;28;20395;-75
2022/05/11 08:43:02;;;;;;;6.43;0.70;;;;;;;-145.18;100.00;47117.50;4973188;28;20575;-76
2022/05/11 08:45:44;;;;;;;5.30;0.80;;;;;;;-145.18;100.00;47119.47;4956544;28;20388;-76
2022/05/11 08:48:21;;;;;;;8.37;1.00;;;;;;;-145.18;100.00;47125.31;4973029;28;20030;-75
2022/05/11 08:50:47;;;;;;;11.27;1.20;;;;;;;-145.18;100.00;47121.41;4973774;28;20019;-76
2022/05/11 08:53:39;;;;;;;4.33;0.80;;;;;;;-145.18;100.00;47113.59;4973206;28;20380;-76
2022/05/11 08:56:14;;;;;;;6.43;1.07;;;;;;;-145.18;100.00;47094.06;4973488;28;20114;-76
2022/05/11 08:58:54;;;;;;;7.57;0.65;;;;;;;-145.18;100.00;47113.59;4972853;28;20031;-76
2022/05/11 09:01:29;;;;;;;4.27;0.80;;;;;;;-145.18;100.00;47119.47;4973362;28;20043;-76
2022/05/11 09:03:56;;;;;;;5.85;0.90;;;;;;;-145.18;100.00;47115.56;4973108;28;20038;-76
2022/05/11 09:06:28;;;;;;;6.63;0.80;;;;;;;-145.18;100.00;47113.59;4973989;28;20042;-76
2022/05/11 09:08:55;;;;;;;15.37;1.30;;;;;;;-145.18;100.00;47096.00;4973105;28;20029;-76
2022/05/11 09:11:32;;;;;;;5.43;0.90;;;;;;;-145.18;100.00;47107.72;4961404;28;20433;-75
2022/05/11 09:13:58;;;;;;;3.73;1.10;;;;;;;-145.18;100.00;47097.97;4953110;29;20051;-76
2022/05/11 09:16:27;;;;;;;7.77;0.80;;;;;;;-145.18;100.00;47111.66;4954250;29;20035;-76
2022/05/11 09:18:54;;;;;;;7.37;1.20;;;;;;;-145.18;100.00;47105.78;4953917;29;20027;-76
2022/05/11 09:21:32;;;;;;;7.23;1.10;;;;;;;-145.18;100.00;47121.41;4936851;29;20041;-76
2022/05/11 09:24:12;;;;;;;3.17;1.17;;;;;;;-145.18;100.00;47113.59;4953515;29;20551;-76
2022/05/11 09:26:41;;;;;;;10.93;1.17;;;;;;;-145.18;100.00;47111.66;4953736;28;20472;-76
2022/05/11 09:29:31;;;;;;;8.00;1.10;;;;;;;-145.18;100.00;47109.69;4953325;29;20066;-76
2022/05/11 09:32:21;;;;;;;5.83;1.40;;;;;;;-145.18;100.00;47088.19;4953743;29;20042;-75
2022/05/11 09:34:46;;;;;;;8.67;1.40;;;;;;;-145.18;100.00;47094.06;4969828;28;20030;-76
2022/05/11 09:37:35;;;;;;;7.57;1.20;;;;;;;-145.18;100.00;47088.19;4973020;28;20388;-76
2022/05/11 09:40:20;;;;;;;6.57;0.93;;;;;;;-145.18;100.00;47103.81;4972240;28;20070;-76
2022/05/11 09:43:01;;;;;;;6.03;1.67;;;;;;;-145.18;100.00;47107.72;4964434;28;20387;-76
2022/05/11 09:45:49;;;;;;;3.93;0.87;;;;;;;-145.18;100.00;47080.38;4952297;28;20030;-76
2022/05/11 09:48:31;;;;;;;6.23;1.80;;;;;;;-145.18;100.00;47082.34;4964787;28;20027;-76
2022/05/11 09:51:17;;;;;;;7.20;1.20;;;;;;;-145.18;100.00;47072.56;4972006;28;20085;-75
2022/05/11 09:53:55;;;;;;;9.47;1.13;;;;;;;-145.18;100.00;47080.38;4971214;28;20102;-76
2022/05/11 09:56:29;;;;;;;3.47;0.70;;;;;;;-145.18;100.00;47072.56;4971531;28;20034;-75
2022/05/11 09:58:55;;;;;;;3.37;0.93;;;;;;;-145.18;100.00;47078.44;4960628;28;20024;-76
2022/05/11 10:01:29;;;;;;;4.00;1.00;;;;;;;-145.18;100.00;47066.72;4952472;29;20070;-76
2022/05/11 10:04:03;;;;;;;7.20;1.10;;;;;;;-145.18;100.00;47086.25;4951315;29;20420;-75
2022/05/11 10:06:34;;;;;;;5.90;1.03;;;;;;;-145.18;100.00;47074.53;4952865;29;20023;-76
2022/05/11 10:09:01;;;;;;;4.67;1.70;;;;;;;-145.18;100.00;47094.06;4952095;29;20023;-76
2022/05/11 10:11:48;;;;;;;6.50;1.07;;;;;;;-145.18;100.00;47080.38;4952717;29;20427;-76
2022/05/11 10:23:09;;;;;;;6.17;0.80;;;;;;;-145.18;100.00;47086.25;4952629;29;20067;-75
2022/05/11 10:25:49;;;;;;;6.13;0.87;;;;;;;-145.18;100.00;47082.34;4952675;29;20039;-75
2022/05/11 10:28:26;;;;;;;4.20;1.30;;;;;;;-145.18;100.00;47070.63;4952566;29;20032;-76
2022/05/11 10:31:02;;;;;;;2.87;0.70;;;;;;;-145.18;100.00;47058.91;4952523;29;20070;-75
2022/05/11 10:33:57;;;;;;;12.63;1.60;;;;;;;-145.18;100.00;47058.91;4954704;28;20038;-75
2022/05/11 10:36:32;;;;;;;5.77;1.20;;;;;;;-145.18;100.00;47060.84;4972076;28;20066;-76
2022/05/11 10:39:00;;;;;;;14.53;1.30;;;;;;;-145.18;100.00;47049.13;4971277;28;20158;-76
2022/05/11 10:41:47;;;;;;;2.70;1.20;;;;;;;-145.18;100.00;47055.00;4970570;28;20506;-76
2022/05/11 10:44:25;;;;;;;6.20;1.47;;;;;;;-145.18;100.00;47058.91;4968521;28;20042;-73
2022/05/11 10:46:50;;;;;;;4.40;1.53;;;;;;;-145.18;100.00;47070.63;4965974;28;20117;-76
2022/05/11 10:49:37;;;;;;;7.30;1.10;;;;;;;-145.18;100.00;47056.94;4967135;28;20118;-75
2022/05/11 10:52:12;;;;;;;4.47;1.30;;;;;;;-145.18;100.00;47051.09;4967264;28;20042;-75
2022/05/11 10:55:08;;;;;;;7.05;1.15;;;;;;;-145.18;100.00;47043.28;4952676;28;20066;-75
2022/05/11 10:57:55;;;;;;;4.50;0.80;;;;;;;-145.18;100.00;47055.00;4947244;28;20076;-75
2022/05/11 11:00:22;;;;;;;6.20;0.90;;;;;;;-145.18;100.00;47062.81;4947343;28;20027;-75
2022/05/11 11:03:18;;;;;;;4.07;1.03;;;;;;;-145.18;100.00;47043.28;4947741;29;20657;-75
2022/05/11 11:08:53;;;;;;;5.23;1.00;;;;;;;-145.18;100.00;47035.44;4951575;29;20615;-75
2022/05/11 11:11:24;;;;;;;5.97;1.23;;;;;;;-145.18;100.00;47025.69;4951504;29;20499;-75
2022/05/11 11:13:54;;;;;;;5.90;1.17;;;;;;;-145.18;100.00;47025.69;4951745;29;20038;-75
2022/05/11 11:16:25;;;;;;;5.90;1.30;;;;;;;-145.18;100.00;47043.28;4948263;28;20113;-75
2022/05/11 11:18:51;;;;;;;15.40;1.77;;;;;;;-145.18;100.00;47041.31;4958026;28;20129;-74
2022/05/11 11:21:17;;;;;;;6.03;2.10;;;;;;;-145.18;100.00;47031.53;4949024;28;20335;-75
2022/05/11 11:23:47;;;;;;;8.27;1.50;;;;;;;-145.18;100.00;47021.78;4946256;28;20039;-75
2022/05/11 11:26:28;;;;;;;5.07;1.37;;;;;;;-145.18;100.00;47049.13;4947308;28;20027;-75
2022/05/11 11:28:56;;;;;;;7.40;1.20;;;;;;;-145.18;100.00;47039.34;4959333;28;20035;-75
2022/05/11 11:31:28;;;;;;;8.23;2.27;;;;;;;-145.18;100.00;47041.31;4966447;28;20084;-74
2022/05/11 11:33:56;;;;;;;14.20;2.37;;;;;;;-145.18;100.00;47031.53;4966106;28;20069;-75
2022/05/11 11:36:26;;;;;;;8.83;1.70;;;;;;;-145.18;100.00;47010.06;4947488;28;20523;-75
2022/05/11 11:38:53;;;;;;;9.23;1.90;;;;;;;-145.18;100.00;47021.78;4949842;28;20035;-75
2022/05/11 11:41:21;;;;;;;7.30;1.60;;;;;;;-145.18;100.00;47012.00;4946806;28;20062;-75
2022/05/11 11:43:50;;;;;;;8.00;1.83;;;;;;;-145.18;100.00;47027.63;4946872;28;20028;-75
2022/05/11 11:46:35;;;;;;;8.40;1.60;;;;;;;-145.18;100.00;47013.97;4946931;28;20031;-75
2022/05/11 11:49:03;;;;;;;4.47;1.67;;;;;;;-145.18;100.00;47010.06;4960070;28;20066;-75
2022/05/11 11:51:56;;;;;;;7.80;1.70;;;;;;;-145.18;100.00;47006.16;4965752;28;20071;-75
2022/05/11 11:54:48;;;;;;;10.00;2.10;;;;;;;-145.18;100.00;46988.56;4965626;28;20058;-75
2022/05/11 11:57:23;;;;;;;6.93;2.50;;;;;;;-145.18;100.00;47004.19;4955401;28;20041;-74
2022/05/11 11:59:59;;;;;;;6.37;1.90;;;;;;;-145.18;100.00;46998.34;4965098;28;20035;-75
2022/05/11 12:02:43;;;;;;;10.33;1.90;;;;;;;-145.18;100.00;46986.63;4965805;28;20051;-75
2022/05/11 12:05:37;;;;;;;7.07;2.30;;;;;;;-145.18;100.00;46971.00;4965506;28;20057;-75
2022/05/11 12:17:06;;;;;;;10.68;2.28;;;;;;;-145.18;100.00;47002.25;4964124;28;20508;-75
2022/05/11 12:19:38;;;;;;;13.80;2.70;;;;;;;-145.18;100.00;46998.34;4968649;28;20066;-75
2022/05/11 12:22:14;;;;;;;29.17;3.53;;;;;;;-145.18;100.00;46990.53;4970195;28;20046;-75
2022/05/11 12:25:06;;;;;;;13.27;2.40;;;;;;;-145.18;100.00;46988.56;4973191;28;20081;-75
2022/05/11 12:27:34;;;;;;;9.13;2.80;;;;;;;-145.18;100.00;46980.75;4973807;28;20115;-75
2022/05/11 12:30:15;;;;;;;16.00;2.30;;;;;;;-145.18;100.00;47002.25;4956329;28;20507;-74
2022/05/11 12:32:49;;;;;;;9.87;2.33;;;;;;;-145.18;100.00;47017.88;4973899;28;20101;-74
2022/05/11 12:35:18;;;;;;;12.60;2.50;;;;;;;-145.18;100.00;47002.25;4973423;28;20037;-75
2022/05/11 12:37:59;;;;;;;9.53;2.17;;;;;;;-145.18;100.00;46988.56;4972857;28;20387;-75
2022/05/11 12:40:25;;;;;;;12.23;2.87;;;;;;;-145.18;100.00;46988.56;4953614;29;20121;-74
2022/05/11 12:43:29;;;;;;;5.93;2.63;;;;;;;-145.18;100.00;46978.81;4969798;28;20031;-74
2022/05/11 12:46:13;;;;;;;12.90;2.33;;;;;;;-145.18;100.00;47013.97;4973069;28;20085;-75
2022/05/11 12:48:42;;;;;;;13.03;2.90;;;;;;;-145.18;100.00;46976.84;4973718;28;20486;-75
2022/05/11 12:51:14;;;;;;;11.37;2.63;;;;;;;-145.18;100.00;46963.19;4973349;28;20046;-75
2022/05/11 12:53:49;;;;;;;10.23;2.90;;;;;;;-145.18;100.00;46984.66;4973115;28;20151;-75
2022/05/11 12:56:24;;;;;;;11.38;2.90;;;;;;;-145.18;100.00;46992.47;4973415;28;20528;-75
2022/05/11 12:58:59;;;;;;;14.77;3.10;;;;;;;-145.18;100.00;46976.84;4973321;28;20078;-74
2022/05/11 13:01:29;;;;;;;15.77;3.60;;;;;;;-145.18;100.00;46947.53;4973028;28;20081;-75
2022/05/11 13:03:58;;;;;;;15.53;2.97;;;;;;;-145.18;100.00;46963.19;4973013;28;20054;-75
2022/05/11 13:06:33;;;;;;;12.20;3.00;;;;;;;-145.18;100.00;46959.25;4973579;28;20140;-75
2022/05/11 13:09:08;;;;;;;9.13;2.90;;;;;;;-145.18;100.00;46953.41;4972731;28;20031;-75
2022/05/11 13:11:35;;;;;;;11.77;2.90;;;;;;;-145.18;100.00;46984.66;4973675;28;20503;-74
2022/05/11 13:14:01;;;;;;;11.80;2.50;;;;;;;-145.18;100.00;46969.03;4972871;28;20117;-74
2022/05/11 13:16:35;;;;;;;12.60;3.10;;;;;;;-145.18;100.00;46965.13;4973127;28;20872;-75
2022/05/11 13:19:26;;;;;;;13.30;3.10;;;;;;;-145.18;100.00;46972.94;4972018;28;20039;-74
2022/05/11 13:21:55;;;;;;;10.87;2.23;;;;;;;-145.18;100.00;46990.53;4973040;28;20031;-75
2022/05/11 13:24:38;;;;;;;12.07;3.50;;;;;;;-145.18;100.00;46963.19;4959732;28;20045;-74
2022/05/11 13:27:37;;;;;;;8.80;3.00;;;;;;;-145.18;100.00;46992.47;4952671;28;20039;-74
2022/05/11 13:30:22;;;;;;;11.93;2.83;;;;;;;-145.18;100.00;47006.16;4966155;28;20045;-74
2022/05/11 13:32:53;;;;;;;12.93;3.07;;;;;;;-145.18;100.00;46986.63;4972840;28;20035;-74
2022/05/11 13:35:31;;;;;;;10.13;2.70;;;;;;;-145.18;100.00;46980.75;4972458;28;20635;-74
2022/05/11 13:38:03;;;;;;;16.10;2.83;;;;;;;-145.18;100.00;47013.97;4972773;28;20089;-74
2022/05/11 13:40:41;;;;;;;9.67;3.07;;;;;;;-145.18;100.00;47037.41;4972412;28;20118;-75
2022/05/11 13:43:22;;;;;;;15.33;3.10;;;;;;;-145.18;100.00;47000.28;4972175;28;20590;-74
2022/05/11 13:45:59;;;;;;;7.70;2.57;;;;;;;-145.18;100.00;46963.19;4972552;28;20197;-74
2022/05/11 13:48:29;;;;;;;15.33;3.13;;;;;;;-145.18;100.00;47000.28;4972499;28;20043;-74
2022/05/11 13:51:08;;;;;;;16.33;2.83;;;;;;;-145.18;100.00;47000.28;4972582;28;20496;-74
2022/05/11 13:53:35;;;;;;;11.07;2.17;;;;;;;-145.18;100.00;46969.03;4972643;28;20027;-74
2022/05/11 13:56:23;;;;;;;14.27;2.60;;;;;;;-145.18;100.00;46994.44;4971967;28;20499;-75
2022/05/11 13:59:06;;;;;;;7.00;1.87;;;;;;;-145.18;100.00;46980.75;4972577;28;20046;-74
2022/05/11 14:01:40;;;;;;;15.03;2.23;;;;;;;-145.18;100.00;46996.38;4971707;28;20034;-74
2022/05/11 14:04:07;;;;;;;16.17;2.90;;;;;;;-145.18;100.00;47015.91;4970453;28;20058;-74
2022/05/11 14:06:54;;;;;;;11.90;3.27;;;;;;;-145.18;100.00;47012.00;4970983;28;20093;-75
2022/05/11 14:09:20;;;;;;;16.80;3.20;;;;;;;-145.18;100.00;47004.19;4954467;28;20027;-74
2022/05/11 14:11:45;;;;;;;17.73;2.00;;;;;;;-145.18;100.00;47017.88;4972479;28;20073;-75
2022/05/11 14:14:11;;;;;;;12.43;2.03;;;;;;;-145.18;100.00;47010.06;4954347;28;20429;-75